Huvudsida
METAR-TAF:

METAR-TAF

Flygplatser :

Sir Seewoosagur Ramgoolams internationella flygplats

Mauritius, Mauritius

latitud: 20-26S, longitud: 057-40E, höjd: 55 m

Aktuellt väderrapport

Denna rapport gjordes för 34 minuter sedan, klockan 14:00 UTC
Vind 10 kt från ost
Temperatur 26°C
Fuktighet 65%
Tryck 1019 hPa
Sikt: 8000 m
Brutna moln på en höjd av 1600 ft
Spridda moln på en höjd av 5000 ft
skurar i närheten

METAR: FIMP 161400Z 09010KT 8000 VCSH BKN016 SCT050 26/19 Q1019

Tid: 18:34 (14:34 UTC)

Väderprognos

Denna rapport gjordes för 2 timmar och 54 minuter sedan, klockan 11:40 UTC
Prognos gäller från 16 kl. 12 UTC till 17 kl. 18 UTC
Vind 13 kt från ost/sydost i byarna ända upp till 25 kt
Sikt 10 km eller mer
Spridda moln på en höjd av 1800 ft
Sannolikhet 30% :
Temporärt
från 17 kl. 10 UTC till 17 kl. 18 UTC
Sikt: 7000 m
Brutna moln på en höjd av 1500 ft
lätta regnskurar

TAF: FIMP 161140Z 1612/1718 12013G25KT 9999 SCT018 PROB30 TEMPO 1710/1718 7000 -SHRA BKN015

Aktuella väderrapporter och prognoser från 4000 flygplatser (METAR- och TAF-rapporter).

De tillgängliga stationerna syns som gula och röda prickar på kartan.

För musen över prickarna för att se namnen på stationerna.

Klicka sedan för att få väderrapporter och prognoser.

För att ändra kartan: Klicka på de gröna knapparna med ett svart kors på för att zooma in; den gröna knappen med ett streck på för att zooma ut; eller på de gröna pilarna för angränsande kartor.


METAR-TAF: